createdAt,value
2018-08-22T00:00:10.249Z,1.50
2018-08-22T00:02:38.248Z,4.30
2018-08-22T00:05:06.238Z,2.90
2018-08-22T00:07:34.247Z,4.03
2018-08-22T00:10:02.220Z,1.33
2018-08-22T00:12:30.224Z,6.57
2018-08-22T00:14:58.253Z,3.43
2018-08-22T00:17:26.250Z,4.03
2018-08-22T00:19:54.261Z,4.10
2018-08-22T00:22:22.273Z,10.77
2018-08-22T00:24:50.396Z,7.50
2018-08-22T00:27:18.396Z,2.53
2018-08-22T00:29:46.411Z,3.43
2018-08-22T00:32:14.400Z,2.50
2018-08-22T00:34:42.416Z,2.73
2018-08-22T00:37:10.412Z,3.73
2018-08-22T00:39:38.419Z,3.60
2018-08-22T00:42:06.413Z,1.93
2018-08-22T00:44:34.388Z,8.33
2018-08-22T00:47:02.387Z,1.80
2018-08-22T00:49:30.428Z,6.17
2018-08-22T00:51:58.424Z,3.13
2018-08-22T00:54:26.456Z,1.97
2018-08-22T00:56:54.457Z,1.30
2018-08-22T00:59:22.600Z,1.77
2018-08-22T01:01:50.593Z,7.60
2018-08-22T01:04:18.596Z,6.50
2018-08-22T01:06:46.600Z,3.53
2018-08-22T01:09:14.620Z,2.30
2018-08-22T01:11:42.596Z,7.90
2018-08-22T01:14:10.592Z,2.00
2018-08-22T01:16:38.570Z,5.13
2018-08-22T01:19:06.557Z,5.50
2018-08-22T01:21:34.616Z,6.03
2018-08-22T01:24:02.608Z,5.97
2018-08-22T01:26:30.638Z,5.10
2018-08-22T01:28:58.644Z,1.67
2018-08-22T01:31:26.722Z,3.87
2018-08-22T01:33:54.704Z,2.63
2018-08-22T01:36:22.692Z,0.90
2018-08-22T01:38:50.693Z,2.83
2018-08-22T01:41:18.684Z,13.03
2018-08-22T01:43:46.681Z,1.90
2018-08-22T01:46:14.796Z,5.03
2018-08-22T01:48:42.808Z,3.97
2018-08-22T01:51:10.809Z,8.33
2018-08-22T01:53:38.865Z,1.83
2018-08-22T01:56:06.858Z,3.70
2018-08-22T01:58:34.876Z,16.17
2018-08-22T02:01:02.908Z,3.37
2018-08-22T02:03:30.913Z,1.10
2018-08-22T02:05:58.896Z,6.57
2018-08-22T02:08:26.908Z,6.90
2018-08-22T02:10:54.900Z,11.07
2018-08-22T02:13:22.892Z,5.00
2018-08-22T02:15:50.879Z,5.60
2018-08-22T02:18:18.908Z,6.97
2018-08-22T02:20:46.916Z,6.73
2018-08-22T02:23:14.924Z,1.37
2018-08-22T02:25:42.912Z,1.73
2018-08-22T02:28:10.991Z,4.77
2018-08-22T02:30:39.107Z,2.87
2018-08-22T02:33:07.098Z,7.70
2018-08-22T02:35:35.081Z,4.83
2018-08-22T02:38:03.104Z,2.67
2018-08-22T02:40:31.097Z,5.70
2018-08-22T02:42:59.085Z,3.37
2018-08-22T02:45:27.117Z,5.03
2018-08-22T02:47:55.177Z,6.67
2018-08-22T02:50:23.360Z,1.37
2018-08-22T02:52:51.374Z,4.10
2018-08-22T02:55:19.381Z,1.20
2018-08-22T02:57:47.370Z,4.43
2018-08-22T03:00:15.477Z,2.80
2018-08-22T03:02:43.507Z,3.20
2018-08-22T03:05:11.523Z,7.40
2018-08-22T03:07:39.496Z,3.63
2018-08-22T03:10:07.842Z,1.80
2018-08-22T03:12:35.834Z,1.60
2018-08-22T03:15:03.873Z,13.33
2018-08-22T03:17:31.892Z,3.80
2018-08-22T03:20:00.124Z,4.53
2018-08-22T03:22:28.137Z,4.13
2018-08-22T03:24:56.164Z,12.90
2018-08-22T03:27:24.252Z,1.30
2018-08-22T03:29:52.252Z,4.93
2018-08-22T03:32:20.231Z,9.20
2018-08-22T03:34:48.208Z,4.23
2018-08-22T03:37:16.265Z,4.60
2018-08-22T03:39:44.284Z,3.83
2018-08-22T03:42:12.285Z,1.60
2018-08-22T03:44:40.278Z,7.33
2018-08-22T03:47:08.269Z,5.73
2018-08-22T03:49:36.316Z,7.10
2018-08-22T03:52:04.301Z,6.27
2018-08-22T03:54:32.320Z,2.30
2018-08-22T03:57:00.329Z,10.63
2018-08-22T03:59:28.321Z,2.30
2018-08-22T04:01:56.322Z,7.80
2018-08-22T04:04:24.336Z,4.93
2018-08-22T04:06:52.328Z,3.70
2018-08-22T04:09:20.313Z,4.97
2018-08-22T04:11:48.441Z,14.73
2018-08-22T04:14:16.416Z,4.97
2018-08-22T04:16:44.409Z,3.23
2018-08-22T04:19:12.531Z,8.63
2018-08-22T04:21:40.552Z,4.33
2018-08-22T04:24:08.540Z,4.20
2018-08-22T04:26:36.537Z,4.30
2018-08-22T04:29:04.875Z,4.20
2018-08-22T04:31:32.907Z,2.90
2018-08-22T04:34:00.902Z,3.47
2018-08-22T04:36:28.954Z,2.50
2018-08-22T04:38:56.937Z,3.47
2018-08-22T04:41:25.071Z,2.40
2018-08-22T04:43:53.059Z,4.30
2018-08-22T04:46:21.048Z,8.23
2018-08-22T04:48:49.048Z,10.33
2018-08-22T04:51:17.043Z,1.40
2018-08-22T04:53:45.032Z,3.13
2018-08-22T04:56:13.037Z,1.37
2018-08-22T04:58:41.054Z,9.37
2018-08-22T05:01:09.078Z,5.73
2018-08-22T05:03:37.116Z,2.93
2018-08-22T05:06:05.151Z,3.53
2018-08-22T05:08:33.104Z,5.03
2018-08-22T05:11:01.111Z,1.70
2018-08-22T05:13:29.115Z,4.13
2018-08-22T05:15:57.139Z,7.33
2018-08-22T05:18:25.172Z,17.17
2018-08-22T05:20:53.173Z,8.13
2018-08-22T05:23:21.168Z,1.50
2018-08-22T05:25:49.181Z,2.20
2018-08-22T05:28:17.198Z,3.87
2018-08-22T05:30:45.177Z,7.27
2018-08-22T05:33:13.179Z,3.70
2018-08-22T05:35:41.214Z,5.13
2018-08-22T05:38:09.341Z,5.00
2018-08-22T05:40:37.392Z,6.73
2018-08-22T05:43:05.369Z,4.80
2018-08-22T05:45:33.398Z,5.27
2018-08-22T05:48:01.393Z,4.70
2018-08-22T05:50:29.385Z,4.30
2018-08-22T05:52:57.414Z,3.33
2018-08-22T05:55:25.396Z,7.20
2018-08-22T05:57:53.397Z,6.20
2018-08-22T06:00:21.404Z,9.73
2018-08-22T06:02:49.400Z,1.57
2018-08-22T06:05:17.415Z,3.37
2018-08-22T06:07:45.418Z,5.60
2018-08-22T06:10:13.417Z,7.67
2018-08-22T06:12:41.412Z,11.00
2018-08-22T06:15:09.430Z,3.60
2018-08-22T06:17:37.454Z,1.30
2018-08-22T06:20:05.518Z,4.00
2018-08-22T06:22:33.542Z,6.57
2018-08-22T06:25:01.597Z,2.50
2018-08-22T06:27:29.593Z,12.83
2018-08-22T06:29:57.626Z,3.17
2018-08-22T06:32:25.819Z,2.30
2018-08-22T06:34:53.794Z,6.13
2018-08-22T06:37:21.781Z,5.73
2018-08-22T06:39:49.773Z,2.70
2018-08-22T06:42:17.764Z,2.40
2018-08-22T06:44:45.753Z,3.87
2018-08-22T06:47:13.833Z,3.33
2018-08-22T06:49:41.828Z,5.40
2018-08-22T06:52:09.825Z,2.90
2018-08-22T06:54:37.833Z,2.50
2018-08-22T06:57:05.886Z,1.60
2018-08-22T06:59:33.820Z,7.87
2018-08-22T07:02:01.838Z,4.57
2018-08-22T07:04:29.834Z,3.20
2018-08-22T07:06:57.832Z,2.00
2018-08-22T07:09:25.847Z,5.13
2018-08-22T07:11:53.832Z,2.53
2018-08-22T07:14:21.844Z,2.43
2018-08-22T07:16:49.849Z,10.30
2018-08-22T07:19:17.859Z,3.10
2018-08-22T07:21:45.885Z,2.33
2018-08-22T07:24:13.907Z,4.03
2018-08-22T07:26:41.892Z,8.23
2018-08-22T07:29:10.068Z,4.57
2018-08-22T07:31:38.053Z,3.93
2018-08-22T07:34:06.064Z,2.17
2018-08-22T07:36:34.060Z,2.87
2018-08-22T07:39:02.073Z,7.57
2018-08-22T07:41:30.068Z,3.03
2018-08-22T07:43:58.117Z,6.40
2018-08-22T07:46:26.112Z,8.03
2018-08-22T07:48:54.117Z,2.23
2018-08-22T07:51:22.172Z,4.63
2018-08-22T07:53:50.177Z,7.07
2018-08-22T07:56:18.149Z,4.10
2018-08-22T07:58:46.130Z,2.40
2018-08-22T08:01:14.132Z,10.87
2018-08-22T08:03:42.129Z,4.00
2018-08-22T08:06:10.116Z,5.03
2018-08-22T08:08:38.263Z,10.37
2018-08-22T08:11:06.280Z,5.90
2018-08-22T08:13:34.237Z,4.83
2018-08-22T08:16:02.249Z,4.77
2018-08-22T08:18:30.243Z,4.73
2018-08-22T08:20:58.241Z,9.27
2018-08-22T08:23:26.228Z,8.70
2018-08-22T08:25:54.209Z,3.63
2018-08-22T08:28:22.261Z,9.80
2018-08-22T08:30:50.326Z,2.80
2018-08-22T08:33:18.327Z,4.90
2018-08-22T08:35:46.307Z,2.60
2018-08-22T08:38:14.517Z,3.67
2018-08-22T08:40:42.540Z,7.90
2018-08-22T08:43:10.538Z,2.60
2018-08-22T08:45:39.216Z,3.60
2018-08-22T08:48:07.440Z,8.13
2018-08-22T08:50:35.388Z,8.40
2018-08-22T08:53:03.399Z,3.50
2018-08-22T08:55:31.405Z,3.20
2018-08-22T08:57:59.445Z,4.33
2018-08-22T09:00:27.447Z,11.37
2018-08-22T09:02:55.441Z,8.57
2018-08-22T09:05:23.445Z,2.73
2018-08-22T09:07:51.428Z,7.97
2018-08-22T09:10:19.425Z,5.97
2018-08-22T09:12:47.415Z,4.43
2018-08-22T09:15:15.445Z,1.50
2018-08-22T09:17:43.457Z,4.67
2018-08-22T09:20:11.434Z,4.83
2018-08-22T09:22:39.425Z,3.70
2018-08-22T09:25:07.421Z,4.20
2018-08-22T09:27:35.409Z,4.83
2018-08-22T09:30:03.424Z,4.93
2018-08-22T09:32:31.452Z,5.10
2018-08-22T09:34:59.456Z,7.93
2018-08-22T09:37:27.460Z,11.13
2018-08-22T09:39:55.497Z,5.67
2018-08-22T09:42:23.470Z,2.00
2018-08-22T09:44:51.480Z,13.63
2018-08-22T09:47:19.464Z,2.40
2018-08-22T09:49:47.495Z,3.30
2018-08-22T09:52:15.778Z,8.23
2018-08-22T09:54:55.873Z,4.30
2018-08-22T09:57:25.258Z,4.20
2018-08-22T09:59:53.329Z,6.00
2018-08-22T10:02:21.609Z,4.93
2018-08-22T10:04:49.613Z,3.90
2018-08-22T10:07:17.668Z,2.20
2018-08-22T10:09:45.670Z,5.73
2018-08-22T10:12:13.669Z,6.63
2018-08-22T10:14:41.751Z,2.83
2018-08-22T10:17:09.753Z,3.70
2018-08-22T10:19:37.750Z,5.77
2018-08-22T10:22:05.820Z,8.33
2018-08-22T10:24:33.865Z,1.07
2018-08-22T10:27:01.858Z,1.33
2018-08-22T10:29:29.858Z,4.97
2018-08-22T10:31:57.841Z,3.20
2018-08-22T10:34:25.849Z,3.37
2018-08-22T10:36:53.833Z,4.10
2018-08-22T10:39:21.894Z,2.50
2018-08-22T10:41:49.842Z,4.00
2018-08-22T10:44:17.865Z,4.00
2018-08-22T10:46:45.885Z,4.43
2018-08-22T10:49:14.053Z,4.77
2018-08-22T10:51:42.049Z,2.43
2018-08-22T10:54:10.121Z,8.57
2018-08-22T10:56:38.171Z,1.43
2018-08-22T10:59:06.188Z,1.93
2018-08-22T11:01:34.193Z,1.00
2018-08-22T11:04:02.238Z,4.53
2018-08-22T11:06:30.253Z,5.50
2018-08-22T11:08:58.306Z,3.57
2018-08-22T11:11:26.308Z,4.67
2018-08-22T11:13:54.316Z,1.47
2018-08-22T11:16:22.346Z,6.60
2018-08-22T11:18:50.329Z,2.37
2018-08-22T11:21:29.796Z,3.90
2018-08-22T11:24:09.644Z,3.07
2018-08-22T11:26:49.093Z,5.03
2018-08-22T11:29:28.708Z,3.67
2018-08-22T11:32:08.117Z,9.17
2018-08-22T11:34:44.274Z,7.00
2018-08-22T11:37:13.609Z,1.60
2018-08-22T11:39:43.169Z,1.33
2018-08-22T11:42:11.196Z,8.03
2018-08-22T11:44:39.197Z,0.80
2018-08-22T11:47:07.200Z,10.03
2018-08-22T11:49:35.188Z,5.70
2018-08-22T11:52:03.265Z,1.43
2018-08-22T11:54:32.025Z,4.00
2018-08-22T11:57:00.444Z,1.37
2018-08-22T11:59:28.468Z,5.57
2018-08-22T12:01:56.610Z,1.53
2018-08-22T12:04:24.549Z,2.83
2018-08-22T12:06:52.745Z,4.20
2018-08-22T12:09:20.810Z,5.57
2018-08-22T12:11:48.807Z,5.93
2018-08-22T12:14:16.890Z,2.30
2018-08-22T12:16:44.901Z,3.23
2018-08-22T12:19:13.002Z,1.13
2018-08-22T12:21:41.745Z,2.23
2018-08-22T12:24:10.047Z,0.97
2018-08-22T12:26:38.083Z,6.83
2018-08-22T12:29:06.056Z,5.70
2018-08-22T12:31:34.458Z,3.10
2018-08-22T12:34:02.448Z,19.33
2018-08-22T12:36:30.473Z,3.03
2018-08-22T12:38:58.476Z,3.40
2018-08-22T12:41:26.788Z,1.70
2018-08-22T12:43:55.101Z,7.20
2018-08-22T12:46:23.273Z,3.87
2018-08-22T12:48:51.281Z,1.60
2018-08-22T12:51:19.413Z,7.57
2018-08-22T12:53:47.417Z,3.07
2018-08-22T12:56:15.457Z,1.53
2018-08-22T12:58:43.617Z,3.57
2018-08-22T13:01:11.629Z,1.83
2018-08-22T13:03:39.670Z,10.63
2018-08-22T13:06:07.882Z,4.60
2018-08-22T13:08:35.901Z,8.13
2018-08-22T13:11:03.939Z,9.30
2018-08-22T13:13:31.886Z,3.80
2018-08-22T13:15:59.925Z,1.33
2018-08-22T13:18:28.008Z,4.93
2018-08-22T13:20:56.108Z,5.00
2018-08-22T13:23:24.228Z,5.70
2018-08-22T13:25:52.437Z,1.40
2018-08-22T13:28:20.606Z,2.10
2018-08-22T13:30:48.806Z,3.33
2018-08-22T13:33:16.998Z,7.80
2018-08-22T13:35:44.991Z,6.00
2018-08-22T13:38:13.020Z,4.97
2018-08-22T13:40:41.306Z,6.90
2018-08-22T13:43:09.306Z,4.60
2018-08-22T13:45:37.695Z,4.67
2018-08-22T13:48:05.858Z,7.80
2018-08-22T13:50:33.864Z,3.33
2018-08-22T13:53:01.852Z,9.50
2018-08-22T13:55:29.837Z,4.03
2018-08-22T13:57:57.830Z,7.60
2018-08-22T14:00:25.821Z,9.43
2018-08-22T14:02:53.804Z,3.13
2018-08-22T14:05:21.796Z,5.43
2018-08-22T14:07:49.863Z,3.87
2018-08-22T14:10:17.856Z,4.20
2018-08-22T14:12:45.833Z,3.50
2018-08-22T14:15:13.832Z,4.60
2018-08-22T14:17:42.014Z,6.57
2018-08-22T14:20:10.076Z,3.03
2018-08-22T14:22:38.934Z,4.03
2018-08-22T14:25:07.102Z,7.40
2018-08-22T14:27:35.848Z,3.33
2018-08-22T14:30:05.873Z,3.85
2018-08-22T14:32:33.899Z,6.10
2018-08-22T14:35:01.995Z,3.13
2018-08-22T14:37:30.156Z,6.87
2018-08-22T14:39:58.292Z,2.87
2018-08-22T14:42:26.354Z,4.70
2018-08-22T14:44:54.505Z,3.93
2018-08-22T14:47:22.512Z,5.20
2018-08-22T14:49:50.532Z,8.00
2018-08-22T14:52:18.573Z,3.20
2018-08-22T14:54:46.597Z,5.30
2018-08-22T14:57:14.617Z,5.87
2018-08-22T14:59:42.617Z,3.50
2018-08-22T15:02:10.641Z,7.17
2018-08-22T15:04:38.620Z,3.40
2018-08-22T15:07:06.606Z,3.17
2018-08-22T15:09:34.598Z,8.10
2018-08-22T15:12:02.648Z,2.70
2018-08-22T15:14:30.636Z,9.17
2018-08-22T15:16:58.685Z,11.03
2018-08-22T15:19:26.737Z,7.20
2018-08-22T15:21:54.708Z,3.73
2018-08-22T15:24:22.694Z,4.87
2018-08-22T15:26:50.788Z,3.00
2018-08-22T15:29:18.781Z,3.00
2018-08-22T15:31:46.772Z,5.50
2018-08-22T15:34:14.766Z,4.10
2018-08-22T15:36:42.740Z,4.33
2018-08-22T15:39:11.450Z,2.53
2018-08-22T15:41:39.430Z,3.03
2018-08-22T15:44:07.485Z,2.67
2018-08-22T15:46:35.476Z,3.27
2018-08-22T15:49:03.483Z,3.33
2018-08-22T15:51:31.497Z,2.50
2018-08-22T15:54:08.398Z,5.40
2018-08-22T15:56:37.624Z,3.10
2018-08-22T15:59:05.677Z,4.50
2018-08-22T16:01:33.660Z,12.03
2018-08-22T16:04:01.656Z,4.27
2018-08-22T16:06:29.634Z,4.40
2018-08-22T16:08:57.636Z,7.47
2018-08-22T16:11:25.617Z,6.93
2018-08-22T16:13:53.642Z,7.87
2018-08-22T16:16:21.632Z,8.97
2018-08-22T16:18:49.681Z,3.03
2018-08-22T16:21:17.725Z,2.97
2018-08-22T16:23:45.725Z,3.00
2018-08-22T16:26:13.715Z,7.90
2018-08-22T16:28:51.361Z,10.10
2018-08-22T16:31:19.608Z,4.73
2018-08-22T16:33:47.597Z,3.93
2018-08-22T16:36:20.655Z,4.03
2018-08-22T16:38:48.673Z,2.53
2018-08-22T16:41:17.556Z,3.17
2018-08-22T16:43:46.432Z,12.33
2018-08-22T16:46:15.617Z,9.87
2018-08-22T16:48:45.418Z,4.10
2018-08-22T16:51:14.544Z,6.73
2018-08-22T16:53:42.901Z,3.10
2018-08-22T16:56:10.992Z,3.13
2018-08-22T16:58:38.974Z,8.90
2018-08-22T17:01:07.001Z,4.50
2018-08-22T17:03:35.005Z,5.30
2018-08-22T17:06:12.324Z,3.40
2018-08-22T17:08:40.516Z,6.60
2018-08-22T17:11:11.073Z,4.00
2018-08-22T17:13:48.768Z,10.13
2018-08-22T17:16:16.793Z,3.10
2018-08-22T17:18:45.832Z,4.90
2018-08-22T17:21:13.897Z,5.60
2018-08-22T17:23:42.289Z,3.43
2018-08-22T17:26:11.988Z,10.20
2018-08-22T17:28:41.833Z,3.43
2018-08-22T17:31:10.555Z,5.27
2018-08-22T17:33:40.836Z,5.70
2018-08-22T17:36:09.795Z,9.93
2018-08-22T17:38:37.987Z,6.13
2018-08-22T17:41:06.076Z,3.50
2018-08-22T17:43:54.200Z,17.47
2018-08-22T17:46:23.116Z,3.70
2018-08-22T17:48:51.145Z,5.13
2018-08-22T17:51:19.333Z,7.67
2018-08-22T17:53:47.316Z,3.00
2018-08-22T17:56:15.304Z,5.13
2018-08-22T17:58:43.650Z,5.57
2018-08-22T18:01:11.668Z,6.70
2018-08-22T18:03:39.853Z,5.30
2018-08-22T18:06:07.845Z,4.00
2018-08-22T18:08:35.892Z,9.47
2018-08-22T18:11:03.957Z,5.43
2018-08-22T18:13:31.992Z,11.43
2018-08-22T18:15:59.997Z,6.73
2018-08-22T18:18:28.019Z,5.90
2018-08-22T18:20:58.345Z,6.20
2018-08-22T18:23:27.330Z,5.27
2018-08-22T18:26:02.900Z,11.03
2018-08-22T18:28:30.902Z,9.40
2018-08-22T18:30:58.888Z,7.10
2018-08-22T18:33:26.883Z,17.83
2018-08-22T18:35:54.956Z,9.00
2018-08-22T18:38:22.988Z,23.97
2018-08-22T18:41:02.492Z,88.83
2018-08-22T18:43:30.519Z,33.80
2018-08-22T18:46:01.107Z,131.57
2018-08-22T18:48:30.596Z,107.47
2018-08-22T18:50:58.833Z,87.77
2018-08-22T18:53:26.874Z,85.83
2018-08-22T18:56:06.421Z,93.73
2018-08-22T18:58:34.518Z,75.37
2018-08-22T19:01:03.528Z,74.83
2018-08-22T19:03:31.589Z,49.00
2018-08-22T19:05:59.610Z,33.03
2018-08-22T19:08:27.621Z,21.87
2018-08-22T19:10:55.662Z,17.23
2018-08-22T19:13:24.640Z,11.73
2018-08-22T19:15:58.783Z,18.20
2018-08-22T19:18:27.016Z,18.67
2018-08-22T19:20:56.497Z,7.93
2018-08-22T19:23:24.708Z,20.17
2018-08-22T19:25:53.650Z,23.83
2018-08-22T19:28:21.644Z,17.50
2018-08-22T19:30:49.740Z,17.10
2018-08-22T19:33:21.905Z,11.50
2018-08-22T19:35:50.239Z,15.40
2018-08-22T19:38:20.079Z,19.27
2018-08-22T19:40:48.193Z,9.97
2018-08-22T19:43:16.240Z,18.03
2018-08-22T19:45:44.250Z,10.30
2018-08-22T19:48:12.245Z,5.40
2018-08-22T19:50:40.260Z,14.70
2018-08-22T19:53:08.253Z,12.37
2018-08-22T19:55:37.042Z,5.30
2018-08-22T19:58:05.197Z,5.40
2018-08-22T20:00:33.193Z,9.43
2018-08-22T20:03:01.247Z,6.20
2018-08-22T20:05:43.510Z,11.00
2018-08-22T20:08:11.534Z,12.23
2018-08-22T20:10:39.554Z,4.73
2018-08-22T20:13:07.567Z,15.27
2018-08-22T20:15:35.643Z,6.50
2018-08-22T20:18:03.749Z,9.57
2018-08-22T20:20:31.929Z,4.90
2018-08-22T20:22:59.970Z,11.07
2018-08-22T20:25:28.001Z,5.27
2018-08-22T20:27:56.005Z,8.10
2018-08-22T20:30:23.999Z,6.57
2018-08-22T20:32:58.342Z,13.20
2018-08-22T20:35:31.096Z,6.40
2018-08-22T20:38:00.340Z,14.53
2018-08-22T20:40:28.512Z,11.23
2018-08-22T20:42:56.605Z,12.47
2018-08-22T20:45:29.974Z,12.50
2018-08-22T20:48:03.878Z,19.83
2018-08-22T20:50:31.897Z,20.17
2018-08-22T20:53:00.887Z,24.03
2018-08-22T20:55:29.032Z,32.53
2018-08-22T20:57:57.376Z,16.40
2018-08-22T21:00:26.016Z,10.07
2018-08-22T21:02:55.220Z,10.67
2018-08-22T21:05:23.240Z,19.37
2018-08-22T21:07:51.265Z,11.80
2018-08-22T21:10:19.656Z,26.13
2018-08-22T21:12:48.116Z,12.97
2018-08-22T21:15:16.207Z,9.83
2018-08-22T21:17:44.294Z,9.83
2018-08-22T21:20:30.912Z,13.03
2018-08-22T21:22:59.044Z,13.60
2018-08-22T21:25:27.073Z,8.97
2018-08-22T21:27:55.191Z,19.20
2018-08-22T21:30:23.294Z,12.30
2018-08-22T21:32:51.244Z,18.87
2018-08-22T21:35:28.705Z,13.83
2018-08-22T21:38:08.728Z,6.57
2018-08-22T21:40:36.752Z,21.80
2018-08-22T21:43:05.092Z,9.57
2018-08-22T21:45:33.124Z,7.07
2018-08-22T21:48:13.818Z,11.47
2018-08-22T21:50:42.479Z,14.47
2018-08-22T21:53:10.511Z,6.10
2018-08-22T21:55:40.383Z,9.13
2018-08-22T21:58:09.269Z,10.70
2018-08-22T22:00:37.763Z,6.93
2018-08-22T22:03:06.188Z,13.83
2018-08-22T22:05:46.336Z,9.67
2018-08-22T22:08:14.344Z,7.40
2018-08-22T22:10:42.480Z,10.20
2018-08-22T22:13:11.154Z,6.60
2018-08-22T22:15:44.356Z,8.50
2018-08-22T22:18:14.447Z,8.10
2018-08-22T22:20:42.693Z,6.70
2018-08-22T22:23:10.704Z,9.40
2018-08-22T22:25:38.709Z,7.67
2018-08-22T22:28:06.757Z,9.83
2018-08-22T22:30:34.729Z,5.80
2018-08-22T22:33:02.772Z,11.80
2018-08-22T22:35:37.450Z,16.27
2018-08-22T22:38:13.176Z,12.93
2018-08-22T22:40:41.255Z,8.97
2018-08-22T22:43:11.268Z,7.07
2018-08-22T22:45:39.276Z,7.97
2018-08-22T22:48:07.265Z,15.10
2018-08-22T22:50:36.922Z,30.03
2018-08-22T22:53:05.000Z,19.00
2018-08-22T22:55:33.245Z,23.00
2018-08-22T22:58:02.249Z,10.20
2018-08-22T23:00:30.316Z,14.03
2018-08-22T23:03:03.900Z,30.57
2018-08-22T23:05:32.257Z,12.33
2018-08-22T23:08:01.644Z,14.90
2018-08-22T23:10:29.768Z,19.73
2018-08-22T23:12:57.813Z,15.73
2018-08-22T23:15:28.180Z,20.80
2018-08-22T23:17:57.472Z,22.83
2018-08-22T23:20:33.125Z,13.73
2018-08-22T23:23:01.155Z,19.20
2018-08-22T23:25:29.577Z,16.57
2018-08-22T23:27:57.572Z,27.10
2018-08-22T23:30:30.904Z,19.97
2018-08-22T23:32:58.905Z,16.67
2018-08-22T23:35:29.864Z,20.17
2018-08-22T23:37:59.892Z,25.23
2018-08-22T23:40:29.169Z,24.00
2018-08-22T23:42:57.220Z,23.80
2018-08-22T23:45:25.252Z,22.70
2018-08-22T23:47:53.258Z,21.27
2018-08-22T23:50:21.273Z,17.10
2018-08-22T23:52:52.767Z,20.00
2018-08-22T23:55:22.096Z,20.57
2018-08-22T23:57:52.820Z,21.50
